sensor_id;sensor_type;location;lat;lon;timestamp;temperature;humidity
20829;DHT22;10575;50.124;8.582;2023-04-01T00:01:25;11.40;99.90
20829;DHT22;10575;50.124;8.582;2023-04-01T00:03:51;11.30;99.90
20829;DHT22;10575;50.124;8.582;2023-04-01T00:06:17;11.20;99.90
20829;DHT22;10575;50.124;8.582;2023-04-01T00:08:44;11.30;99.90
20829;DHT22;10575;50.124;8.582;2023-04-01T00:11:10;11.30;99.90
20829;DHT22;10575;50.124;8.582;2023-04-01T00:13:36;11.30;99.90
20829;DHT22;10575;50.124;8.582;2023-04-01T00:16:02;11.30;99.90
20829;DHT22;10575;50.124;8.582;2023-04-01T00:18:28;11.30;99.90
20829;DHT22;10575;50.124;8.582;2023-04-01T00:20:54;11.30;99.90
20829;DHT22;10575;50.124;8.582;2023-04-01T00:23:20;11.30;99.90
20829;DHT22;10575;50.124;8.582;2023-04-01T00:25:46;11.30;99.90
20829;DHT22;10575;50.124;8.582;2023-04-01T00:28:14;11.30;99.90
20829;DHT22;10575;50.124;8.582;2023-04-01T00:30:40;11.40;99.90
20829;DHT22;10575;50.124;8.582;2023-04-01T00:33:06;11.40;99.90
20829;DHT22;10575;50.124;8.582;2023-04-01T00:35:31;11.30;99.90
20829;DHT22;10575;50.124;8.582;2023-04-01T00:37:58;11.40;99.90
20829;DHT22;10575;50.124;8.582;2023-04-01T00:40:35;11.40;99.90
20829;DHT22;10575;50.124;8.582;2023-04-01T00:43:01;11.40;99.90
20829;DHT22;10575;50.124;8.582;2023-04-01T00:45:36;11.30;99.90
20829;DHT22;10575;50.124;8.582;2023-04-01T00:48:07;11.30;99.90
20829;DHT22;10575;50.124;8.582;2023-04-01T00:50:35;11.30;99.90
20829;DHT22;10575;50.124;8.582;2023-04-01T00:53:02;11.30;99.90
20829;DHT22;10575;50.124;8.582;2023-04-01T00:55:32;11.30;99.90
20829;DHT22;10575;50.124;8.582;2023-04-01T00:57:59;11.30;99.90
20829;DHT22;10575;50.124;8.582;2023-04-01T01:00:25;11.30;99.90
20829;DHT22;10575;50.124;8.582;2023-04-01T01:02:52;11.30;99.90
20829;DHT22;10575;50.124;8.582;2023-04-01T01:05:23;11.30;99.90
20829;DHT22;10575;50.124;8.582;2023-04-01T01:10:57;11.20;99.90
20829;DHT22;10575;50.124;8.582;2023-04-01T01:13:30;11.30;99.90
20829;DHT22;10575;50.124;8.582;2023-04-01T01:16:10;11.40;99.90
20829;DHT22;10575;50.124;8.582;2023-04-01T01:21:34;11.40;99.90
20829;DHT22;10575;50.124;8.582;2023-04-01T01:24:28;11.40;99.90
20829;DHT22;10575;50.124;8.582;2023-04-01T01:27:07;11.40;99.90
20829;DHT22;10575;50.124;8.582;2023-04-01T01:35:24;11.40;99.90
20829;DHT22;10575;50.124;8.582;2023-04-01T01:38:21;11.50;99.90
20829;DHT22;10575;50.124;8.582;2023-04-01T01:40:50;11.40;99.90
20829;DHT22;10575;50.124;8.582;2023-04-01T01:43:22;11.50;99.90
20829;DHT22;10575;50.124;8.582;2023-04-01T01:45:52;11.50;99.90
20829;DHT22;10575;50.124;8.582;2023-04-01T01:48:19;11.40;99.90
20829;DHT22;10575;50.124;8.582;2023-04-01T01:50:46;11.40;99.90
20829;DHT22;10575;50.124;8.582;2023-04-01T01:53:14;11.30;99.90
20829;DHT22;10575;50.124;8.582;2023-04-01T01:55:42;11.30;99.90
20829;DHT22;10575;50.124;8.582;2023-04-01T01:58:30;11.30;99.90
20829;DHT22;10575;50.124;8.582;2023-04-01T02:00:58;11.40;99.90
20829;DHT22;10575;50.124;8.582;2023-04-01T02:03:27;11.50;99.90
20829;DHT22;10575;50.124;8.582;2023-04-01T02:05:56;11.50;99.90
20829;DHT22;10575;50.124;8.582;2023-04-01T02:09:08;11.50;99.90
20829;DHT22;10575;50.124;8.582;2023-04-01T02:11:18;11.50;99.90
20829;DHT22;10575;50.124;8.582;2023-04-01T02:14:03;11.40;99.90
20829;DHT22;10575;50.124;8.582;2023-04-01T02:16:40;11.40;99.90
20829;DHT22;10575;50.124;8.582;2023-04-01T02:19:10;11.30;99.90
20829;DHT22;10575;50.124;8.582;2023-04-01T02:21:38;11.30;99.90
20829;DHT22;10575;50.124;8.582;2023-04-01T02:24:08;11.30;99.90
20829;DHT22;10575;50.124;8.582;2023-04-01T02:26:34;11.30;99.90
20829;DHT22;10575;50.124;8.582;2023-04-01T02:29:01;11.30;99.90
20829;DHT22;10575;50.124;8.582;2023-04-01T02:31:29;11.30;99.90
20829;DHT22;10575;50.124;8.582;2023-04-01T02:33:56;11.30;99.90
20829;DHT22;10575;50.124;8.582;2023-04-01T02:36:22;11.20;99.90
20829;DHT22;10575;50.124;8.582;2023-04-01T02:38:48;11.20;99.90
20829;DHT22;10575;50.124;8.582;2023-04-01T02:41:15;11.20;99.90
20829;DHT22;10575;50.124;8.582;2023-04-01T02:43:40;11.20;99.90
20829;DHT22;10575;50.124;8.582;2023-04-01T02:46:06;11.20;99.90
20829;DHT22;10575;50.124;8.582;2023-04-01T02:48:32;11.10;99.90
20829;DHT22;10575;50.124;8.582;2023-04-01T02:50:57;11.10;99.90
20829;DHT22;10575;50.124;8.582;2023-04-01T02:53:23;11.00;99.90
20829;DHT22;10575;50.124;8.582;2023-04-01T02:55:49;11.10;99.90
20829;DHT22;10575;50.124;8.582;2023-04-01T02:58:17;11.10;99.90
20829;DHT22;10575;50.124;8.582;2023-04-01T03:00:42;11.10;99.90
20829;DHT22;10575;50.124;8.582;2023-04-01T03:03:08;11.20;99.90
20829;DHT22;10575;50.124;8.582;2023-04-01T03:05:34;11.10;99.90
20829;DHT22;10575;50.124;8.582;2023-04-01T03:07:59;11.00;99.90
20829;DHT22;10575;50.124;8.582;2023-04-01T03:10:25;11.00;99.90
20829;DHT22;10575;50.124;8.582;2023-04-01T03:12:50;11.00;99.90
20829;DHT22;10575;50.124;8.582;2023-04-01T03:15:16;11.00;99.90
20829;DHT22;10575;50.124;8.582;2023-04-01T03:17:42;11.00;99.90
20829;DHT22;10575;50.124;8.582;2023-04-01T03:20:08;11.10;99.90
20829;DHT22;10575;50.124;8.582;2023-04-01T03:22:36;11.10;99.90
20829;DHT22;10575;50.124;8.582;2023-04-01T03:25:03;11.10;99.90
20829;DHT22;10575;50.124;8.582;2023-04-01T03:27:28;11.00;99.90
20829;DHT22;10575;50.124;8.582;2023-04-01T03:29:54;11.10;99.90
20829;DHT22;10575;50.124;8.582;2023-04-01T03:32:19;11.10;99.90
20829;DHT22;10575;50.124;8.582;2023-04-01T03:34:45;11.10;99.90
20829;DHT22;10575;50.124;8.582;2023-04-01T03:37:11;11.10;99.90
20829;DHT22;10575;50.124;8.582;2023-04-01T03:39:36;11.20;99.90
20829;DHT22;10575;50.124;8.582;2023-04-01T03:42:02;11.20;99.90
20829;DHT22;10575;50.124;8.582;2023-04-01T03:44:31;11.10;99.90
20829;DHT22;10575;50.124;8.582;2023-04-01T03:46:57;11.10;99.90
20829;DHT22;10575;50.124;8.582;2023-04-01T03:49:22;11.10;99.90
20829;DHT22;10575;50.124;8.582;2023-04-01T03:51:48;11.20;99.90
20829;DHT22;10575;50.124;8.582;2023-04-01T03:54:13;11.10;99.90
20829;DHT22;10575;50.124;8.582;2023-04-01T03:56:39;11.10;99.90
20829;DHT22;10575;50.124;8.582;2023-04-01T03:59:06;11.20;99.90
20829;DHT22;10575;50.124;8.582;2023-04-01T04:01:33;11.20;99.90
20829;DHT22;10575;50.124;8.582;2023-04-01T04:03:58;11.20;99.90
20829;DHT22;10575;50.124;8.582;2023-04-01T04:06:25;11.20;99.90
20829;DHT22;10575;50.124;8.582;2023-04-01T04:08:50;11.20;99.90
20829;DHT22;10575;50.124;8.582;2023-04-01T04:11:18;11.20;99.90
20829;DHT22;10575;50.124;8.582;2023-04-01T04:13:44;11.20;99.90
20829;DHT22;10575;50.124;8.582;2023-04-01T04:16:10;11.20;99.90
20829;DHT22;10575;50.124;8.582;2023-04-01T04:18:36;11.10;99.90
20829;DHT22;10575;50.124;8.582;2023-04-01T04:21:03;11.10;99.90
20829;DHT22;10575;50.124;8.582;2023-04-01T04:23:29;11.10;99.90
20829;DHT22;10575;50.124;8.582;2023-04-01T04:26:00;11.10;99.90
20829;DHT22;10575;50.124;8.582;2023-04-01T04:28:27;11.10;99.90
20829;DHT22;10575;50.124;8.582;2023-04-01T04:30:53;11.10;99.90
20829;DHT22;10575;50.124;8.582;2023-04-01T04:33:20;11.20;99.90
20829;DHT22;10575;50.124;8.582;2023-04-01T04:35:45;11.10;99.90
20829;DHT22;10575;50.124;8.582;2023-04-01T04:38:11;11.10;99.90
20829;DHT22;10575;50.124;8.582;2023-04-01T04:40:38;11.10;99.90
20829;DHT22;10575;50.124;8.582;2023-04-01T04:43:04;11.00;99.90
20829;DHT22;10575;50.124;8.582;2023-04-01T04:45:30;11.10;99.90
20829;DHT22;10575;50.124;8.582;2023-04-01T04:47:56;11.00;99.90
20829;DHT22;10575;50.124;8.582;2023-04-01T04:50:22;11.00;99.90
20829;DHT22;10575;50.124;8.582;2023-04-01T04:52:48;11.00;99.90
20829;DHT22;10575;50.124;8.582;2023-04-01T04:55:13;11.00;99.90
20829;DHT22;10575;50.124;8.582;2023-04-01T04:57:40;11.00;99.90
20829;DHT22;10575;50.124;8.582;2023-04-01T05:00:06;11.10;99.90
20829;DHT22;10575;50.124;8.582;2023-04-01T05:02:33;11.00;99.90
20829;DHT22;10575;50.124;8.582;2023-04-01T05:04:58;11.10;99.90
20829;DHT22;10575;50.124;8.582;2023-04-01T05:07:24;11.00;99.90
20829;DHT22;10575;50.124;8.582;2023-04-01T05:09:49;11.00;99.90
20829;DHT22;10575;50.124;8.582;2023-04-01T05:12:15;11.00;99.90
20829;DHT22;10575;50.124;8.582;2023-04-01T05:14:40;11.00;99.90
20829;DHT22;10575;50.124;8.582;2023-04-01T05:17:12;10.90;99.90
20829;DHT22;10575;50.124;8.582;2023-04-01T05:19:38;10.80;99.90
20829;DHT22;10575;50.124;8.582;2023-04-01T05:22:05;10.80;99.90
20829;DHT22;10575;50.124;8.582;2023-04-01T05:24:31;10.80;99.90
20829;DHT22;10575;50.124;8.582;2023-04-01T05:26:57;10.80;99.90
20829;DHT22;10575;50.124;8.582;2023-04-01T05:29:24;10.90;99.90
20829;DHT22;10575;50.124;8.582;2023-04-01T05:31:49;10.90;99.90
20829;DHT22;10575;50.124;8.582;2023-04-01T05:34:15;10.70;99.90
20829;DHT22;10575;50.124;8.582;2023-04-01T05:36:41;10.70;99.90
20829;DHT22;10575;50.124;8.582;2023-04-01T05:39:07;10.70;99.90
20829;DHT22;10575;50.124;8.582;2023-04-01T05:41:37;10.70;99.90
20829;DHT22;10575;50.124;8.582;2023-04-01T05:44:03;10.70;99.90
20829;DHT22;10575;50.124;8.582;2023-04-01T05:46:29;10.80;99.90
20829;DHT22;10575;50.124;8.582;2023-04-01T05:48:55;10.80;99.90
20829;DHT22;10575;50.124;8.582;2023-04-01T05:51:20;10.80;99.90
20829;DHT22;10575;50.124;8.582;2023-04-01T05:53:46;10.80;99.90
20829;DHT22;10575;50.124;8.582;2023-04-01T05:56:12;10.60;99.90
20829;DHT22;10575;50.124;8.582;2023-04-01T05:58:38;10.60;99.90
20829;DHT22;10575;50.124;8.582;2023-04-01T06:01:09;10.50;99.90
20829;DHT22;10575;50.124;8.582;2023-04-01T06:03:35;10.50;99.90
20829;DHT22;10575;50.124;8.582;2023-04-01T06:06:00;10.50;99.90
20829;DHT22;10575;50.124;8.582;2023-04-01T06:08:26;10.60;99.90
20829;DHT22;10575;50.124;8.582;2023-04-01T06:14:10;10.60;99.90
20829;DHT22;10575;50.124;8.582;2023-04-01T06:33:02;10.60;99.90
20829;DHT22;10575;50.124;8.582;2023-04-01T06:41:57;10.60;99.90
20829;DHT22;10575;50.124;8.582;2023-04-01T06:44:43;10.60;99.90
20829;DHT22;10575;50.124;8.582;2023-04-01T06:50:24;10.70;99.90
20829;DHT22;10575;50.124;8.582;2023-04-01T06:52:58;10.70;99.90
20829;DHT22;10575;50.124;8.582;2023-04-01T06:55:41;10.80;99.90
20829;DHT22;10575;50.124;8.582;2023-04-01T06:58:21;11.00;99.90
20829;DHT22;10575;50.124;8.582;2023-04-01T07:00:50;11.00;99.90
20829;DHT22;10575;50.124;8.582;2023-04-01T07:03:21;10.90;99.90
20829;DHT22;10575;50.124;8.582;2023-04-01T07:05:48;10.90;99.90
20829;DHT22;10575;50.124;8.582;2023-04-01T07:08:21;10.90;99.90
20829;DHT22;10575;50.124;8.582;2023-04-01T07:10:58;10.90;99.90
20829;DHT22;10575;50.124;8.582;2023-04-01T07:13:32;10.90;99.90
20829;DHT22;10575;50.124;8.582;2023-04-01T07:16:08;10.90;99.90
20829;DHT22;10575;50.124;8.582;2023-04-01T07:18:48;10.70;99.90
20829;DHT22;10575;50.124;8.582;2023-04-01T07:21:26;10.70;99.90
20829;DHT22;10575;50.124;8.582;2023-04-01T07:23:58;10.70;99.90
20829;DHT22;10575;50.124;8.582;2023-04-01T07:26:26;10.80;99.90
20829;DHT22;10575;50.124;8.582;2023-04-01T07:28:53;10.90;99.90
20829;DHT22;10575;50.124;8.582;2023-04-01T07:31:48;11.00;99.90
20829;DHT22;10575;50.124;8.582;2023-04-01T07:34:28;11.30;99.90
20829;DHT22;10575;50.124;8.582;2023-04-01T07:36:59;11.40;99.90
20829;DHT22;10575;50.124;8.582;2023-04-01T07:40:06;11.50;99.90
20829;DHT22;10575;50.124;8.582;2023-04-01T07:47:53;11.40;99.90
20829;DHT22;10575;50.124;8.582;2023-04-01T07:50:25;11.40;99.90
20829;DHT22;10575;50.124;8.582;2023-04-01T07:53:37;11.30;99.90
20829;DHT22;10575;50.124;8.582;2023-04-01T07:56:33;11.20;99.90
20829;DHT22;10575;50.124;8.582;2023-04-01T07:59:22;11.20;99.90
20829;DHT22;10575;50.124;8.582;2023-04-01T08:02:10;11.30;99.90
20829;DHT22;10575;50.124;8.582;2023-04-01T08:07:30;11.70;99.90
20829;DHT22;10575;50.124;8.582;2023-04-01T08:15:39;12.20;99.90
20829;DHT22;10575;50.124;8.582;2023-04-01T08:18:30;12.20;99.90
20829;DHT22;10575;50.124;8.582;2023-04-01T08:21:02;12.10;99.90
20829;DHT22;10575;50.124;8.582;2023-04-01T08:23:37;12.10;99.90
20829;DHT22;10575;50.124;8.582;2023-04-01T08:28:57;12.10;99.90
20829;DHT22;10575;50.124;8.582;2023-04-01T08:33:55;12.00;99.90
20829;DHT22;10575;50.124;8.582;2023-04-01T08:36:28;11.90;99.90
20829;DHT22;10575;50.124;8.582;2023-04-01T08:39:18;11.90;99.90
20829;DHT22;10575;50.124;8.582;2023-04-01T08:54:14;11.90;99.90
20829;DHT22;10575;50.124;8.582;2023-04-01T08:56:36;12.20;99.90
20829;DHT22;10575;50.124;8.582;2023-04-01T08:59:19;12.20;99.90
20829;DHT22;10575;50.124;8.582;2023-04-01T09:04:42;12.30;99.90
20829;DHT22;10575;50.124;8.582;2023-04-01T09:07:40;12.70;99.90
20829;DHT22;10575;50.124;8.582;2023-04-01T09:10:49;12.70;99.90
20829;DHT22;10575;50.124;8.582;2023-04-01T09:13:53;12.60;99.90
20829;DHT22;10575;50.124;8.582;2023-04-01T09:16:42;12.70;99.90
20829;DHT22;10575;50.124;8.582;2023-04-01T09:22:35;12.60;99.90
20829;DHT22;10575;50.124;8.582;2023-04-01T09:25:20;12.60;99.90
20829;DHT22;10575;50.124;8.582;2023-04-01T09:44:58;13.20;99.90
20829;DHT22;10575;50.124;8.582;2023-04-01T09:47:36;13.40;99.90
20829;DHT22;10575;50.124;8.582;2023-04-01T09:59:08;13.50;99.90
20829;DHT22;10575;50.124;8.582;2023-04-01T10:02:04;13.60;99.90
20829;DHT22;10575;50.124;8.582;2023-04-01T10:08:05;13.60;99.90
20829;DHT22;10575;50.124;8.582;2023-04-01T10:16:52;13.20;99.90
20829;DHT22;10575;50.124;8.582;2023-04-01T10:34:09;13.30;99.90
20829;DHT22;10575;50.124;8.582;2023-04-01T10:36:54;13.50;99.90
20829;DHT22;10575;50.124;8.582;2023-04-01T10:39:50;13.40;99.90
20829;DHT22;10575;50.124;8.582;2023-04-01T10:56:45;13.90;99.90
20829;DHT22;10575;50.124;8.582;2023-04-01T10:59:31;14.00;99.90
20829;DHT22;10575;50.124;8.582;2023-04-01T11:02:35;14.00;99.90
20829;DHT22;10575;50.124;8.582;2023-04-01T11:05:41;13.90;99.90
20829;DHT22;10575;50.124;8.582;2023-04-01T11:14:47;14.10;99.90
20829;DHT22;10575;50.124;8.582;2023-04-01T11:20:45;14.20;99.90
20829;DHT22;10575;50.124;8.582;2023-04-01T11:35:01;13.90;99.90
20829;DHT22;10575;50.124;8.582;2023-04-01T11:51:43;13.90;99.90
20829;DHT22;10575;50.124;8.582;2023-04-01T11:54:34;13.80;99.90
20829;DHT22;10575;50.124;8.582;2023-04-01T12:01:07;13.70;99.90
20829;DHT22;10575;50.124;8.582;2023-04-01T12:05:52;13.40;99.90
20829;DHT22;10575;50.124;8.582;2023-04-01T12:08:42;13.10;99.90
20829;DHT22;10575;50.124;8.582;2023-04-01T12:14:02;12.90;99.90
20829;DHT22;10575;50.124;8.582;2023-04-01T12:19:19;12.80;99.90
20829;DHT22;10575;50.124;8.582;2023-04-01T12:22:12;12.80;99.90
20829;DHT22;10575;50.124;8.582;2023-04-01T12:25:16;12.80;99.90
20829;DHT22;10575;50.124;8.582;2023-04-01T12:36:31;12.80;99.90
20829;DHT22;10575;50.124;8.582;2023-04-01T12:44:56;13.20;99.90
20829;DHT22;10575;50.124;8.582;2023-04-01T12:48:00;13.20;99.90
20829;DHT22;10575;50.124;8.582;2023-04-01T12:50:53;13.30;99.90
20829;DHT22;10575;50.124;8.582;2023-04-01T12:55:59;13.40;99.90
20829;DHT22;10575;50.124;8.582;2023-04-01T12:58:38;13.50;99.90
20829;DHT22;10575;50.124;8.582;2023-04-01T13:01:12;13.40;99.90
20829;DHT22;10575;50.124;8.582;2023-04-01T13:03:53;13.50;99.90
20829;DHT22;10575;50.124;8.582;2023-04-01T13:06:45;13.50;99.90
20829;DHT22;10575;50.124;8.582;2023-04-01T13:09:42;13.70;99.90
20829;DHT22;10575;50.124;8.582;2023-04-01T13:12:47;13.90;99.90
20829;DHT22;10575;50.124;8.582;2023-04-01T13:15:25;14.20;99.90
20829;DHT22;10575;50.124;8.582;2023-04-01T13:23:27;14.70;99.90
20829;DHT22;10575;50.124;8.582;2023-04-01T13:26:27;14.80;99.90
20829;DHT22;10575;50.124;8.582;2023-04-01T13:34:45;15.10;99.90
20829;DHT22;10575;50.124;8.582;2023-04-01T13:37:41;15.10;99.90
20829;DHT22;10575;50.124;8.582;2023-04-01T13:40:53;15.20;99.90
20829;DHT22;10575;50.124;8.582;2023-04-01T13:43:22;15.20;99.90
20829;DHT22;10575;50.124;8.582;2023-04-01T13:54:16;15.50;99.90
20829;DHT22;10575;50.124;8.582;2023-04-01T13:57:22;15.20;99.90
20829;DHT22;10575;50.124;8.582;2023-04-01T13:59:58;15.20;99.90
20829;DHT22;10575;50.124;8.582;2023-04-01T14:02:50;15.10;99.90
20829;DHT22;10575;50.124;8.582;2023-04-01T14:05:35;15.10;99.90
20829;DHT22;10575;50.124;8.582;2023-04-01T14:08:42;15.10;99.90
20829;DHT22;10575;50.124;8.582;2023-04-01T14:11:24;15.20;99.90
20829;DHT22;10575;50.124;8.582;2023-04-01T14:14:48;15.30;99.90
20829;DHT22;10575;50.124;8.582;2023-04-01T14:16:55;15.10;99.90
20829;DHT22;10575;50.124;8.582;2023-04-01T14:19:53;14.90;99.90
20829;DHT22;10575;50.124;8.582;2023-04-01T14:25:27;14.50;99.90
20829;DHT22;10575;50.124;8.582;2023-04-01T14:28:25;14.30;99.90
20829;DHT22;10575;50.124;8.582;2023-04-01T14:33:41;14.20;99.90
20829;DHT22;10575;50.124;8.582;2023-04-01T14:42:20;14.10;99.90
20829;DHT22;10575;50.124;8.582;2023-04-01T14:45:36;14.30;99.90
20829;DHT22;10575;50.124;8.582;2023-04-01T14:48:17;14.30;99.90
20829;DHT22;10575;50.124;8.582;2023-04-01T14:50:46;14.30;99.90
20829;DHT22;10575;50.124;8.582;2023-04-01T14:53:28;14.30;99.90
20829;DHT22;10575;50.124;8.582;2023-04-01T14:56:02;14.40;99.90
20829;DHT22;10575;50.124;8.582;2023-04-01T14:58:49;14.20;99.90
20829;DHT22;10575;50.124;8.582;2023-04-01T15:04:46;14.10;99.90
20829;DHT22;10575;50.124;8.582;2023-04-01T15:07:54;14.00;99.90
20829;DHT22;10575;50.124;8.582;2023-04-01T15:10:32;13.70;99.90
20829;DHT22;10575;50.124;8.582;2023-04-01T15:13:30;13.80;99.90
20829;DHT22;10575;50.124;8.582;2023-04-01T15:21:19;13.70;99.90
20829;DHT22;10575;50.124;8.582;2023-04-01T15:29:33;13.50;99.90
20829;DHT22;10575;50.124;8.582;2023-04-01T15:41:02;13.50;99.90
20829;DHT22;10575;50.124;8.582;2023-04-01T15:43:41;13.50;99.90
20829;DHT22;10575;50.124;8.582;2023-04-01T15:46:43;13.50;99.90
20829;DHT22;10575;50.124;8.582;2023-04-01T15:52:10;13.30;99.90
20829;DHT22;10575;50.124;8.582;2023-04-01T15:55:08;13.40;99.90
20829;DHT22;10575;50.124;8.582;2023-04-01T16:00:49;13.40;99.90
20829;DHT22;10575;50.124;8.582;2023-04-01T16:14:07;13.70;99.90
20829;DHT22;10575;50.124;8.582;2023-04-01T16:16:56;13.90;99.90
20829;DHT22;10575;50.124;8.582;2023-04-01T16:19:32;13.80;99.90
20829;DHT22;10575;50.124;8.582;2023-04-01T16:22:16;13.80;99.90
20829;DHT22;10575;50.124;8.582;2023-04-01T16:34:08;13.40;99.90
20829;DHT22;10575;50.124;8.582;2023-04-01T16:36:41;13.40;99.90
20829;DHT22;10575;50.124;8.582;2023-04-01T16:39:29;13.40;99.90
20829;DHT22;10575;50.124;8.582;2023-04-01T16:42:16;13.40;99.90
20829;DHT22;10575;50.124;8.582;2023-04-01T16:45:15;13.50;99.90
20829;DHT22;10575;50.124;8.582;2023-04-01T16:50:28;13.40;99.90
20829;DHT22;10575;50.124;8.582;2023-04-01T16:53:29;13.40;99.90
20829;DHT22;10575;50.124;8.582;2023-04-01T16:56:08;13.20;99.90
20829;DHT22;10575;50.124;8.582;2023-04-01T16:58:40;13.20;99.90
20829;DHT22;10575;50.124;8.582;2023-04-01T17:01:26;13.00;99.90
20829;DHT22;10575;50.124;8.582;2023-04-01T17:03:58;13.00;99.90
20829;DHT22;10575;50.124;8.582;2023-04-01T17:06:53;12.90;99.90
20829;DHT22;10575;50.124;8.582;2023-04-01T17:10:05;12.90;99.90
20829;DHT22;10575;50.124;8.582;2023-04-01T17:21:02;12.90;99.90
20829;DHT22;10575;50.124;8.582;2023-04-01T17:23:38;12.90;99.90
20829;DHT22;10575;50.124;8.582;2023-04-01T17:34:37;12.30;99.90
20829;DHT22;10575;50.124;8.582;2023-04-01T17:40:21;12.30;99.90
20829;DHT22;10575;50.124;8.582;2023-04-01T17:45:56;12.20;99.90
20829;DHT22;10575;50.124;8.582;2023-04-01T17:48:30;12.20;99.90
20829;DHT22;10575;50.124;8.582;2023-04-01T17:57:06;12.10;99.90
20829;DHT22;10575;50.124;8.582;2023-04-01T17:59:44;12.30;99.90
20829;DHT22;10575;50.124;8.582;2023-04-01T18:05:03;12.20;99.90
20829;DHT22;10575;50.124;8.582;2023-04-01T18:16:39;12.10;99.90
20829;DHT22;10575;50.124;8.582;2023-04-01T18:21:56;11.80;99.90
20829;DHT22;10575;50.124;8.582;2023-04-01T18:24:30;11.80;99.90
20829;DHT22;10575;50.124;8.582;2023-04-01T18:27:06;11.70;99.90
20829;DHT22;10575;50.124;8.582;2023-04-01T18:35:19;11.50;99.90
20829;DHT22;10575;50.124;8.582;2023-04-01T18:38:00;11.50;99.90
20829;DHT22;10575;50.124;8.582;2023-04-01T18:46:12;11.50;99.90
20829;DHT22;10575;50.124;8.582;2023-04-01T18:48:57;11.60;99.90
20829;DHT22;10575;50.124;8.582;2023-04-01T18:57:13;11.70;99.90
20829;DHT22;10575;50.124;8.582;2023-04-01T19:02:34;11.90;99.90
20829;DHT22;10575;50.124;8.582;2023-04-01T19:07:53;11.90;99.90
20829;DHT22;10575;50.124;8.582;2023-04-01T19:10:40;11.90;99.90
20829;DHT22;10575;50.124;8.582;2023-04-01T19:13:22;12.00;99.90
20829;DHT22;10575;50.124;8.582;2023-04-01T19:16:13;12.00;99.90
20829;DHT22;10575;50.124;8.582;2023-04-01T19:21:41;11.80;99.90
20829;DHT22;10575;50.124;8.582;2023-04-01T19:24:47;11.80;99.90
20829;DHT22;10575;50.124;8.582;2023-04-01T19:27:20;11.90;99.90
20829;DHT22;10575;50.124;8.582;2023-04-01T19:30:06;11.90;99.90
20829;DHT22;10575;50.124;8.582;2023-04-01T19:35:26;12.00;99.90
20829;DHT22;10575;50.124;8.582;2023-04-01T19:38:19;11.90;99.90
20829;DHT22;10575;50.124;8.582;2023-04-01T19:40:53;11.90;99.90
20829;DHT22;10575;50.124;8.582;2023-04-01T19:43:28;12.00;99.90
20829;DHT22;10575;50.124;8.582;2023-04-01T19:54:43;11.90;99.90
20829;DHT22;10575;50.124;8.582;2023-04-01T20:08:44;11.70;99.90
20829;DHT22;10575;50.124;8.582;2023-04-01T20:19:39;11.30;99.90
20829;DHT22;10575;50.124;8.582;2023-04-01T20:22:31;11.30;99.90
20829;DHT22;10575;50.124;8.582;2023-04-01T20:25:08;11.30;99.90
20829;DHT22;10575;50.124;8.582;2023-04-01T20:27:39;11.40;99.90
20829;DHT22;10575;50.124;8.582;2023-04-01T20:33:21;11.40;99.90
20829;DHT22;10575;50.124;8.582;2023-04-01T20:36:06;11.30;99.90
20829;DHT22;10575;50.124;8.582;2023-04-01T20:41:27;11.30;99.90
20829;DHT22;10575;50.124;8.582;2023-04-01T20:46:34;11.40;99.90
20829;DHT22;10575;50.124;8.582;2023-04-01T20:51:32;11.40;99.90
20829;DHT22;10575;50.124;8.582;2023-04-01T20:54:18;11.40;99.90
20829;DHT22;10575;50.124;8.582;2023-04-01T21:02:20;11.40;99.90
20829;DHT22;10575;50.124;8.582;2023-04-01T21:05:19;11.40;99.90
20829;DHT22;10575;50.124;8.582;2023-04-01T21:07:56;11.20;99.90
20829;DHT22;10575;50.124;8.582;2023-04-01T21:10:39;11.30;99.90
20829;DHT22;10575;50.124;8.582;2023-04-01T21:13:24;11.40;99.90
20829;DHT22;10575;50.124;8.582;2023-04-01T21:24:23;11.50;99.90
20829;DHT22;10575;50.124;8.582;2023-04-01T21:27:03;11.50;99.90
20829;DHT22;10575;50.124;8.582;2023-04-01T21:32:37;11.70;99.90
20829;DHT22;10575;50.124;8.582;2023-04-01T21:35:32;11.80;99.90
20829;DHT22;10575;50.124;8.582;2023-04-01T22:07:21;11.50;99.90
20829;DHT22;10575;50.124;8.582;2023-04-01T22:12:43;11.40;99.90
20829;DHT22;10575;50.124;8.582;2023-04-01T22:18:18;11.30;99.90
20829;DHT22;10575;50.124;8.582;2023-04-01T22:20:53;11.30;99.90
20829;DHT22;10575;50.124;8.582;2023-04-01T22:29:38;11.30;99.90
20829;DHT22;10575;50.124;8.582;2023-04-01T22:35:08;11.20;99.90
20829;DHT22;10575;50.124;8.582;2023-04-01T22:37:47;11.30;99.90
20829;DHT22;10575;50.124;8.582;2023-04-01T22:40:33;11.20;99.90
20829;DHT22;10575;50.124;8.582;2023-04-01T22:43:10;11.20;99.90
20829;DHT22;10575;50.124;8.582;2023-04-01T22:45:50;11.20;99.90
20829;DHT22;10575;50.124;8.582;2023-04-01T22:48:38;11.30;99.90
20829;DHT22;10575;50.124;8.582;2023-04-01T22:51:18;11.30;99.90
20829;DHT22;10575;50.124;8.582;2023-04-01T22:54:02;11.40;99.90
20829;DHT22;10575;50.124;8.582;2023-04-01T22:56:36;11.40;99.90
20829;DHT22;10575;50.124;8.582;2023-04-01T22:59:14;11.50;99.90
20829;DHT22;10575;50.124;8.582;2023-04-01T23:01:53;11.50;99.90
20829;DHT22;10575;50.124;8.582;2023-04-01T23:04:24;11.60;99.90
20829;DHT22;10575;50.124;8.582;2023-04-01T23:06:59;11.60;99.90
20829;DHT22;10575;50.124;8.582;2023-04-01T23:09:31;11.70;99.90
20829;DHT22;10575;50.124;8.582;2023-04-01T23:12:10;11.70;99.90
20829;DHT22;10575;50.124;8.582;2023-04-01T23:14:56;11.60;99.90
20829;DHT22;10575;50.124;8.582;2023-04-01T23:23:02;11.70;99.90
20829;DHT22;10575;50.124;8.582;2023-04-01T23:25:46;11.70;99.90
20829;DHT22;10575;50.124;8.582;2023-04-01T23:36:11;11.60;99.90
20829;DHT22;10575;50.124;8.582;2023-04-01T23:38:42;11.60;99.90
20829;DHT22;10575;50.124;8.582;2023-04-01T23:41:25;11.60;99.90
20829;DHT22;10575;50.124;8.582;2023-04-01T23:44:10;11.60;99.90
20829;DHT22;10575;50.124;8.582;2023-04-01T23:46:37;11.60;99.90
20829;DHT22;10575;50.124;8.582;2023-04-01T23:49:06;11.60;99.90
20829;DHT22;10575;50.124;8.582;2023-04-01T23:51:38;11.60;99.90
20829;DHT22;10575;50.124;8.582;2023-04-01T23:54:17;11.50;99.90
20829;DHT22;10575;50.124;8.582;2023-04-01T23:56:50;11.50;99.90
20829;DHT22;10575;50.124;8.582;2023-04-01T23:59:19;11.50;99.90
